createdAt,value
2018-06-30T00:01:31.856Z,101714.53
2018-06-30T00:03:58.798Z,101708.91
2018-06-30T00:06:26.624Z,101706.06
2018-06-30T00:08:54.404Z,101710.45
2018-06-30T00:11:21.320Z,101710.73
2018-06-30T00:13:48.335Z,101713.92
2018-06-30T00:16:15.284Z,101723.23
2018-06-30T00:18:42.231Z,101721.74
2018-06-30T00:21:09.930Z,101717.60
2018-06-30T00:23:37.307Z,101713.52
2018-06-30T00:26:04.472Z,101723.47
2018-06-30T00:28:31.425Z,101726.22
2018-06-30T00:30:58.340Z,101727.69
2018-06-30T00:33:25.581Z,101723.66
2018-06-30T00:35:52.521Z,101727.56
2018-06-30T00:38:19.584Z,101729.89
2018-06-30T00:40:46.462Z,101733.19
2018-06-30T00:43:13.433Z,101727.44
2018-06-30T00:45:40.375Z,101723.88
2018-06-30T00:48:07.310Z,101738.87
2018-06-30T00:50:34.226Z,101736.17
2018-06-30T00:53:01.797Z,101734.31
2018-06-30T00:55:29.040Z,101735.00
2018-06-30T00:57:56.552Z,101739.80
2018-06-30T01:00:24.287Z,101746.86
2018-06-30T01:02:51.267Z,101744.39
2018-06-30T01:05:18.247Z,101751.48
2018-06-30T01:07:45.188Z,101745.53
2018-06-30T01:10:12.109Z,101747.50
2018-06-30T01:12:39.099Z,101747.58
2018-06-30T01:15:06.076Z,101744.40
2018-06-30T01:17:33.753Z,101742.64
2018-06-30T01:20:00.679Z,101742.86
2018-06-30T01:22:27.949Z,101741.38
2018-06-30T01:24:55.347Z,101749.11
2018-06-30T01:27:22.279Z,101742.97
2018-06-30T01:29:49.407Z,101745.80
2018-06-30T01:32:16.421Z,101750.55
2018-06-30T01:34:43.340Z,101758.06
2018-06-30T01:37:10.325Z,101752.30
2018-06-30T01:39:37.259Z,101758.22
2018-06-30T01:42:04.172Z,101757.56
2018-06-30T01:44:31.100Z,101758.45
2018-06-30T01:46:58.050Z,101762.41
2018-06-30T01:49:25.038Z,101757.78
2018-06-30T01:51:51.991Z,101749.84
2018-06-30T01:54:18.928Z,101749.08
2018-06-30T01:56:45.860Z,101758.83
2018-06-30T01:59:12.787Z,101754.88
2018-06-30T02:01:39.716Z,101753.42
2018-06-30T02:04:06.664Z,101752.64
2018-06-30T02:06:33.693Z,101745.77
2018-06-30T02:09:00.611Z,101748.89
2018-06-30T02:11:27.600Z,101740.06
2018-06-30T02:13:54.547Z,101748.92
2018-06-30T02:16:21.464Z,101752.11
2018-06-30T02:18:48.399Z,101752.48
2018-06-30T02:21:15.333Z,101761.08
2018-06-30T02:23:42.252Z,101765.25
2018-06-30T02:26:09.176Z,101760.92
2018-06-30T02:28:36.147Z,101764.88
2018-06-30T02:31:03.131Z,101770.34
2018-06-30T02:33:30.053Z,101762.09
2018-06-30T02:35:56.987Z,101772.46
2018-06-30T02:38:23.916Z,101769.52
2018-06-30T02:40:50.841Z,101767.75
2018-06-30T02:43:17.760Z,101771.33
2018-06-30T02:45:44.705Z,101774.16
2018-06-30T02:48:11.629Z,101770.38
2018-06-30T02:50:38.567Z,101760.80
2018-06-30T02:53:05.500Z,101769.93
2018-06-30T02:55:32.428Z,101781.09
2018-06-30T02:57:59.356Z,101780.48
2018-06-30T03:00:26.310Z,101779.25
2018-06-30T03:02:53.233Z,101777.16
2018-06-30T03:05:20.177Z,101785.09
2018-06-30T03:07:47.105Z,101782.37
2018-06-30T03:10:14.074Z,101783.23
2018-06-30T03:12:41.059Z,101791.93
2018-06-30T03:15:08.016Z,101790.83
2018-06-30T03:17:34.946Z,101791.02
2018-06-30T03:20:01.885Z,101799.33
2018-06-30T03:22:28.816Z,101791.75
2018-06-30T03:24:55.769Z,101797.41
2018-06-30T03:27:22.693Z,101798.20
2018-06-30T03:29:49.628Z,101791.11
2018-06-30T03:32:16.557Z,101799.77
2018-06-30T03:34:43.584Z,101799.99
2018-06-30T03:37:11.324Z,101799.45
2018-06-30T03:39:38.248Z,101804.55
2018-06-30T03:42:05.281Z,101800.78
2018-06-30T03:44:32.209Z,101802.45
2018-06-30T03:46:59.117Z,101806.67
2018-06-30T03:49:26.057Z,101810.39
2018-06-30T03:51:53.165Z,101799.05
2018-06-30T03:54:20.092Z,101805.08
2018-06-30T03:56:47.024Z,101808.21
2018-06-30T03:59:13.937Z,101808.55
2018-06-30T04:01:40.886Z,101811.30
2018-06-30T04:04:07.784Z,101805.27
2018-06-30T04:06:34.724Z,101808.41
2018-06-30T04:09:01.689Z,101807.83
2018-06-30T04:11:28.631Z,101809.63
2018-06-30T04:13:55.543Z,101812.43
2018-06-30T04:16:22.477Z,101809.61
2018-06-30T04:18:49.392Z,101812.61
2018-06-30T04:21:16.333Z,101806.06
2018-06-30T04:23:43.247Z,101820.66
2018-06-30T04:26:10.209Z,101822.72
2018-06-30T04:28:37.145Z,101821.59
2018-06-30T04:31:04.233Z,101822.89
2018-06-30T04:33:31.171Z,101825.02
2018-06-30T04:35:58.121Z,101825.56
2018-06-30T04:38:25.096Z,101830.84
2018-06-30T04:40:52.040Z,101821.27
2018-06-30T04:43:18.948Z,101829.87
2018-06-30T04:45:45.900Z,101827.38
2018-06-30T04:48:12.836Z,101827.98
2018-06-30T04:50:39.764Z,101828.47
2018-06-30T04:53:06.701Z,101831.21
2018-06-30T04:55:33.644Z,101831.25
2018-06-30T04:58:07.327Z,101835.52
2018-06-30T05:00:34.250Z,101824.57
2018-06-30T05:03:01.202Z,101831.92
2018-06-30T05:05:28.124Z,101838.91
2018-06-30T05:10:28.664Z,101828.52
2018-06-30T05:12:55.592Z,101838.58
2018-06-30T05:15:22.496Z,101829.00
2018-06-30T05:17:49.398Z,101829.39
2018-06-30T05:20:16.328Z,101824.13
2018-06-30T05:22:43.253Z,101832.16
2018-06-30T05:25:10.148Z,101840.69
2018-06-30T05:27:37.093Z,101835.17
2018-06-30T05:30:04.486Z,101834.81
2018-06-30T05:32:31.454Z,101845.38
2018-06-30T05:34:58.349Z,101844.23
2018-06-30T05:37:25.287Z,101851.16
2018-06-30T05:39:52.235Z,101854.72
2018-06-30T05:42:19.165Z,101855.91
2018-06-30T05:44:46.086Z,101853.11
2018-06-30T05:47:13.050Z,101859.72
2018-06-30T05:49:39.974Z,101849.45
2018-06-30T05:52:06.916Z,101851.14
2018-06-30T05:54:33.836Z,101851.28
2018-06-30T05:57:00.795Z,101848.43
2018-06-30T05:59:27.786Z,101857.80
2018-06-30T06:01:54.797Z,101855.95
2018-06-30T06:04:21.716Z,101852.89
2018-06-30T06:06:48.676Z,101853.78
2018-06-30T06:09:15.596Z,101862.11
2018-06-30T06:11:42.556Z,101858.30
2018-06-30T06:14:10.045Z,101855.50
2018-06-30T06:16:37.024Z,101854.56
2018-06-30T06:19:04.541Z,101858.53
2018-06-30T06:21:31.502Z,101863.44
2018-06-30T06:23:58.416Z,101863.38
2018-06-30T06:26:25.432Z,101866.00
2018-06-30T06:28:52.348Z,101863.16
2018-06-30T06:31:19.313Z,101864.33
2018-06-30T06:33:46.273Z,101857.66
2018-06-30T06:36:13.216Z,101862.61
2018-06-30T06:38:40.161Z,101861.80
2018-06-30T06:41:07.089Z,101862.47
2018-06-30T06:43:34.028Z,101857.91
2018-06-30T06:46:00.973Z,101855.51
2018-06-30T06:48:27.917Z,101854.73
2018-06-30T06:50:54.835Z,101851.27
2018-06-30T06:53:21.760Z,101849.32
2018-06-30T06:55:48.699Z,101853.97
2018-06-30T06:58:15.640Z,101849.62
2018-06-30T07:00:42.604Z,101852.24
2018-06-30T07:03:09.539Z,101842.02
2018-06-30T07:05:36.468Z,101848.20
2018-06-30T07:08:03.412Z,101849.31
2018-06-30T07:10:30.353Z,101845.83
2018-06-30T07:12:57.328Z,101853.84
2018-06-30T07:15:24.243Z,101856.45
2018-06-30T07:17:51.219Z,101854.16
2018-06-30T07:20:18.172Z,101851.30
2018-06-30T07:22:45.125Z,101855.38
2018-06-30T07:25:12.053Z,101854.83
2018-06-30T07:27:38.972Z,101852.31
2018-06-30T07:30:05.962Z,101857.84
2018-06-30T07:32:32.983Z,101864.33
2018-06-30T07:34:59.881Z,101859.17
2018-06-30T07:37:26.927Z,101860.27
2018-06-30T07:39:53.806Z,101859.63
2018-06-30T07:42:20.730Z,101851.34
2018-06-30T07:44:47.685Z,101847.25
2018-06-30T07:47:14.601Z,101847.34
2018-06-30T07:49:41.518Z,101852.26
2018-06-30T07:52:08.451Z,101850.83
2018-06-30T07:54:35.348Z,101855.20
2018-06-30T07:57:02.320Z,101849.39
2018-06-30T07:59:29.234Z,101843.34
2018-06-30T08:01:56.141Z,101848.55
2018-06-30T08:04:23.081Z,101852.97
2018-06-30T08:06:50.001Z,101855.41
2018-06-30T08:09:16.920Z,101852.98
2018-06-30T08:11:43.859Z,101853.23
2018-06-30T08:14:10.789Z,101859.14
2018-06-30T08:16:37.742Z,101859.35
2018-06-30T08:19:04.956Z,101857.13
2018-06-30T08:21:31.921Z,101858.91
2018-06-30T08:23:58.940Z,101852.83
2018-06-30T08:26:25.874Z,101856.15
2018-06-30T08:28:52.804Z,101853.17
2018-06-30T08:31:19.732Z,101849.88
2018-06-30T08:33:46.680Z,101853.03
2018-06-30T08:36:13.628Z,101852.00
2018-06-30T08:38:40.531Z,101853.05
2018-06-30T08:41:07.459Z,101856.30
2018-06-30T08:43:34.385Z,101862.14
2018-06-30T08:46:01.297Z,101866.73
2018-06-30T08:48:28.316Z,101867.57
2018-06-30T08:50:55.233Z,101863.75
2018-06-30T08:53:22.220Z,101857.67
2018-06-30T08:55:49.171Z,101866.88
2018-06-30T08:58:16.124Z,101854.36
2018-06-30T09:00:43.091Z,101857.06
2018-06-30T09:03:09.980Z,101856.13
2018-06-30T09:05:36.915Z,101860.34
2018-06-30T09:08:03.913Z,101850.83
2018-06-30T09:10:30.861Z,101846.92
2018-06-30T09:12:57.833Z,101845.28
2018-06-30T09:15:24.736Z,101845.34
2018-06-30T09:17:51.655Z,101846.50
2018-06-30T09:20:18.626Z,101844.73
2018-06-30T09:22:45.520Z,101842.73
2018-06-30T09:25:12.438Z,101842.41
2018-06-30T09:27:39.365Z,101846.52
2018-06-30T09:30:07.036Z,101843.98
2018-06-30T09:32:33.968Z,101843.87
2018-06-30T09:35:00.874Z,101842.06
2018-06-30T09:37:27.800Z,101842.07
2018-06-30T09:39:54.728Z,101847.84
2018-06-30T09:42:21.666Z,101845.12
2018-06-30T09:44:48.634Z,101841.95
2018-06-30T09:47:15.523Z,101843.72
2018-06-30T09:49:42.443Z,101830.04
2018-06-30T09:52:09.377Z,101845.33
2018-06-30T09:54:36.288Z,101842.05
2018-06-30T09:57:03.253Z,101841.69
2018-06-30T09:59:30.401Z,101840.88
2018-06-30T10:01:57.333Z,101846.73
2018-06-30T10:04:24.247Z,101841.02
2018-06-30T10:06:51.188Z,101845.19
2018-06-30T10:09:18.108Z,101841.07
2018-06-30T10:11:45.021Z,101838.22
2018-06-30T10:14:11.965Z,101832.59
2018-06-30T10:16:38.937Z,101833.79
2018-06-30T10:19:05.916Z,101832.42
2018-06-30T10:21:32.796Z,101839.33
2018-06-30T10:23:59.723Z,101838.00
2018-06-30T10:26:26.684Z,101837.35
2018-06-30T10:28:54.376Z,101828.78
2018-06-30T10:31:21.353Z,101835.70
2018-06-30T10:33:48.249Z,101828.55
2018-06-30T10:36:15.167Z,101829.91
2018-06-30T10:38:42.060Z,101828.91
2018-06-30T10:41:08.985Z,101835.45
2018-06-30T10:43:36.096Z,101832.70
2018-06-30T10:46:03.046Z,101833.93
2018-06-30T10:48:29.962Z,101840.25
2018-06-30T10:50:56.905Z,101839.23
2018-06-30T10:53:24.218Z,101833.58
2018-06-30T10:55:51.153Z,101830.39
2018-06-30T10:58:18.065Z,101820.84
2018-06-30T11:00:44.994Z,101817.14
2018-06-30T11:03:11.933Z,101818.55
2018-06-30T11:05:38.849Z,101817.66
2018-06-30T11:08:05.806Z,101811.09
2018-06-30T11:10:32.772Z,101811.78
2018-06-30T11:12:59.702Z,101816.80
2018-06-30T11:15:26.654Z,101815.03
2018-06-30T11:17:53.561Z,101813.52
2018-06-30T11:20:20.510Z,101813.74
2018-06-30T11:22:47.424Z,101807.14
2018-06-30T11:25:14.357Z,101804.58
2018-06-30T11:27:41.277Z,101801.84
2018-06-30T11:30:08.473Z,101804.53
2018-06-30T11:32:35.706Z,101799.15
2018-06-30T11:35:02.660Z,101789.64
2018-06-30T11:37:29.579Z,101789.32
2018-06-30T11:39:56.529Z,101795.33
2018-06-30T11:42:23.440Z,101792.02
2018-06-30T11:44:50.357Z,101794.33
2018-06-30T11:47:17.272Z,101789.14
2018-06-30T11:49:44.240Z,101788.66
2018-06-30T11:52:11.141Z,101791.84
2018-06-30T11:54:38.064Z,101799.78
2018-06-30T11:57:04.976Z,101789.98
2018-06-30T11:59:31.875Z,101791.37
2018-06-30T12:01:58.794Z,101784.95
2018-06-30T12:04:25.765Z,101792.88
2018-06-30T12:06:53.078Z,101789.58
2018-06-30T12:09:20.068Z,101786.52
2018-06-30T12:11:46.930Z,101788.64
2018-06-30T12:14:13.896Z,101788.81
2018-06-30T12:16:40.846Z,101785.16
2018-06-30T12:19:07.773Z,101780.33
2018-06-30T12:21:34.708Z,101783.47
2018-06-30T12:24:01.637Z,101774.69
2018-06-30T12:26:28.544Z,101777.90
2018-06-30T12:28:55.465Z,101778.44
2018-06-30T12:31:22.373Z,101776.89
2018-06-30T12:33:49.296Z,101778.30
2018-06-30T12:36:16.234Z,101777.08
2018-06-30T12:38:43.194Z,101773.58
2018-06-30T12:41:10.137Z,101775.67
2018-06-30T12:43:37.060Z,101781.24
2018-06-30T12:46:04.098Z,101775.36
2018-06-30T12:48:31.041Z,101768.17
2018-06-30T12:50:57.976Z,101766.55
2018-06-30T12:53:24.919Z,101769.98
2018-06-30T12:55:51.858Z,101776.64
2018-06-30T12:58:18.843Z,101767.02
2018-06-30T13:00:45.800Z,101763.32
2018-06-30T13:03:12.724Z,101759.53
2018-06-30T13:05:39.653Z,101761.44
2018-06-30T13:08:06.585Z,101753.27
2018-06-30T13:10:33.512Z,101754.86
2018-06-30T13:13:00.444Z,101744.79
2018-06-30T13:15:27.411Z,101754.27
2018-06-30T13:17:54.341Z,101751.58
2018-06-30T13:20:21.268Z,101753.94
2018-06-30T13:22:48.188Z,101754.69
2018-06-30T13:25:15.139Z,101755.64
2018-06-30T13:27:42.076Z,101750.12
2018-06-30T13:30:09.052Z,101748.90
2018-06-30T13:32:36.014Z,101756.92
2018-06-30T13:35:02.964Z,101749.41
2018-06-30T13:37:29.913Z,101739.09
2018-06-30T13:39:56.832Z,101752.75
2018-06-30T13:42:23.785Z,101743.92
2018-06-30T13:44:50.702Z,101743.80
2018-06-30T13:47:17.630Z,101753.66
2018-06-30T13:49:44.561Z,101756.53
2018-06-30T13:52:11.479Z,101753.95
2018-06-30T13:54:40.481Z,101759.08
2018-06-30T13:57:09.125Z,101751.09
2018-06-30T13:59:37.727Z,101756.66
2018-06-30T14:02:07.144Z,101760.88
2018-06-30T14:04:36.308Z,101754.57
2018-06-30T14:07:05.583Z,101756.42
2018-06-30T14:09:34.442Z,101752.16
2018-06-30T14:12:03.433Z,101757.16
2018-06-30T14:14:32.266Z,101760.58
2018-06-30T14:17:01.117Z,101757.62
2018-06-30T14:19:30.153Z,101752.39
2018-06-30T14:22:00.905Z,101754.25
2018-06-30T14:24:29.812Z,101758.38
2018-06-30T14:26:59.200Z,101758.01
2018-06-30T14:29:28.462Z,101752.64
2018-06-30T14:31:58.094Z,101755.22
2018-06-30T14:34:27.101Z,101753.05
2018-06-30T14:36:54.026Z,101748.85
2018-06-30T14:39:20.918Z,101750.63
2018-06-30T14:41:47.840Z,101746.17
2018-06-30T14:44:15.192Z,101748.75
2018-06-30T14:46:42.132Z,101746.13
2018-06-30T14:49:09.140Z,101747.59
2018-06-30T14:51:36.142Z,101743.78
2018-06-30T14:54:03.081Z,101738.61
2018-06-30T14:56:30.061Z,101746.63
2018-06-30T14:58:57.049Z,101747.59
2018-06-30T15:01:24.180Z,101737.25
2018-06-30T15:03:51.156Z,101741.00
2018-06-30T15:06:18.147Z,101735.08
2018-06-30T15:08:45.088Z,101735.26
2018-06-30T15:11:12.008Z,101741.86
2018-06-30T15:13:38.948Z,101741.20
2018-06-30T15:16:05.900Z,101750.76
2018-06-30T15:18:32.829Z,101744.45
2018-06-30T15:20:59.731Z,101739.21
2018-06-30T15:23:26.652Z,101738.16
2018-06-30T15:25:53.552Z,101738.82
2018-06-30T15:28:20.496Z,101731.58
2018-06-30T15:30:47.395Z,101728.13
2018-06-30T15:33:14.335Z,101727.16
2018-06-30T15:35:41.256Z,101726.88
2018-06-30T15:38:08.217Z,101723.98
2018-06-30T15:40:35.145Z,101720.52
2018-06-30T15:43:02.094Z,101719.03
2018-06-30T15:45:29.037Z,101719.20
2018-06-30T15:47:55.965Z,101721.50
2018-06-30T15:50:22.880Z,101712.87
2018-06-30T15:52:49.828Z,101723.39
2018-06-30T15:55:16.743Z,101727.42
2018-06-30T15:57:43.673Z,101723.31
2018-06-30T16:00:10.603Z,101715.81
2018-06-30T16:02:37.576Z,101718.05
2018-06-30T16:05:04.534Z,101719.06
2018-06-30T16:07:31.489Z,101725.55
2018-06-30T16:09:58.430Z,101716.76
2018-06-30T16:12:25.408Z,101715.58
2018-06-30T16:14:52.328Z,101715.72
2018-06-30T16:17:19.224Z,101721.85
2018-06-30T16:19:46.131Z,101721.09
2018-06-30T16:22:13.069Z,101723.56
2018-06-30T16:24:40.031Z,101719.38
2018-06-30T16:27:06.953Z,101717.50
2018-06-30T16:29:34.078Z,101721.80
2018-06-30T16:32:01.518Z,101729.23
2018-06-30T16:34:28.478Z,101724.86
2018-06-30T16:36:55.408Z,101718.54
2018-06-30T16:39:22.312Z,101718.31
2018-06-30T16:41:49.252Z,101724.98
2018-06-30T16:44:16.192Z,101717.69
2018-06-30T16:46:43.140Z,101719.24
2018-06-30T16:49:10.105Z,101716.92
2018-06-30T16:51:36.980Z,101716.59
2018-06-30T16:54:04.168Z,101712.95
2018-06-30T16:56:31.143Z,101710.64
2018-06-30T16:58:59.019Z,101708.72
2018-06-30T17:01:25.955Z,101712.28
2018-06-30T17:03:52.921Z,101717.49
2018-06-30T17:06:20.198Z,101715.36
2018-06-30T17:08:47.036Z,101716.38
2018-06-30T17:11:13.958Z,101720.01
2018-06-30T17:13:40.912Z,101726.41
2018-06-30T17:16:07.873Z,101721.45
2018-06-30T17:18:35.178Z,101722.97
2018-06-30T17:21:02.118Z,101721.45
2018-06-30T17:23:29.049Z,101721.95
2018-06-30T17:25:56.038Z,101729.91
2018-06-30T17:28:23.144Z,101721.02
2018-06-30T17:30:50.075Z,101725.11
2018-06-30T17:33:17.007Z,101726.31
2018-06-30T17:35:43.928Z,101726.09
2018-06-30T17:38:10.841Z,101721.12
2018-06-30T17:40:37.773Z,101723.95
2018-06-30T17:43:05.113Z,101731.26
2018-06-30T17:45:32.052Z,101728.87
2018-06-30T17:47:59.011Z,101735.15
2018-06-30T17:50:25.949Z,101721.95
2018-06-30T17:52:52.883Z,101728.48
2018-06-30T17:55:19.837Z,101727.58
2018-06-30T17:57:46.772Z,101737.52
2018-06-30T18:00:13.770Z,101735.09
2018-06-30T18:02:40.705Z,101736.11
2018-06-30T18:05:07.712Z,101737.63
2018-06-30T18:07:34.633Z,101739.20
2018-06-30T18:10:01.629Z,101739.66
2018-06-30T18:12:28.517Z,101733.57
2018-06-30T18:14:55.458Z,101741.94
2018-06-30T18:17:22.381Z,101741.38
2018-06-30T18:19:49.384Z,101743.18
2018-06-30T18:22:16.352Z,101742.37
2018-06-30T18:24:43.296Z,101741.41
2018-06-30T18:27:10.256Z,101738.22
2018-06-30T18:29:37.191Z,101739.33
2018-06-30T18:32:04.157Z,101744.33
2018-06-30T18:34:31.116Z,101739.28
2018-06-30T18:36:58.062Z,101737.66
2018-06-30T18:39:25.090Z,101735.19
2018-06-30T18:41:51.937Z,101739.63
2018-06-30T18:44:18.888Z,101738.62
2018-06-30T18:46:45.937Z,101737.11
2018-06-30T18:49:12.819Z,101742.95
2018-06-30T18:51:39.743Z,101739.22
2018-06-30T18:54:07.504Z,101742.48
2018-06-30T18:56:34.452Z,101750.72
2018-06-30T18:59:01.387Z,101752.39
2018-06-30T19:01:28.349Z,101751.42
2018-06-30T19:03:55.266Z,101762.67
2018-06-30T19:06:22.201Z,101758.97
2018-06-30T19:08:49.119Z,101760.14
2018-06-30T19:11:16.047Z,101765.38
2018-06-30T19:13:43.045Z,101777.94
2018-06-30T19:16:09.976Z,101765.94
2018-06-30T19:18:36.890Z,101770.89
2018-06-30T19:21:03.819Z,101774.75
2018-06-30T19:23:30.724Z,101772.53
2018-06-30T19:25:57.662Z,101769.42
2018-06-30T19:28:24.564Z,101778.25
2018-06-30T19:30:51.508Z,101785.80
2018-06-30T19:33:18.416Z,101782.70
2018-06-30T19:35:45.403Z,101780.86
2018-06-30T19:38:12.300Z,101782.06
2018-06-30T19:40:39.203Z,101790.69
2018-06-30T19:43:06.099Z,101790.34
2018-06-30T19:45:33.052Z,101788.55
2018-06-30T19:47:59.939Z,101791.91
2018-06-30T19:50:26.832Z,101790.81
2018-06-30T19:52:53.772Z,101796.92
2018-06-30T19:55:20.677Z,101796.42
2018-06-30T19:57:47.628Z,101799.63
2018-06-30T20:00:14.560Z,101795.28
2018-06-30T20:02:41.929Z,101799.25
2018-06-30T20:05:08.829Z,101796.55
2018-06-30T20:07:41.474Z,101803.13
2018-06-30T20:10:08.376Z,101803.52
2018-06-30T20:12:35.278Z,101807.45
2018-06-30T20:15:02.212Z,101802.48
2018-06-30T20:17:29.666Z,101809.17
2018-06-30T20:19:56.560Z,101812.17
2018-06-30T20:22:23.464Z,101808.03
2018-06-30T20:24:50.384Z,101809.69
2018-06-30T20:27:17.305Z,101809.70
2018-06-30T20:29:44.212Z,101807.22
2018-06-30T20:32:11.142Z,101808.87
2018-06-30T20:34:38.057Z,101809.61
2018-06-30T20:37:05.075Z,101808.27
2018-06-30T20:39:37.936Z,101806.78
2018-06-30T20:42:06.176Z,101809.54
2018-06-30T20:44:33.966Z,101807.59
2018-06-30T20:47:02.065Z,101814.38
2018-06-30T20:49:29.700Z,101817.70
2018-06-30T20:51:59.345Z,101818.94
2018-06-30T20:54:27.570Z,101820.67
2018-06-30T20:56:55.184Z,101820.25
2018-06-30T20:59:22.736Z,101818.86
2018-06-30T21:01:50.688Z,101813.74
2018-06-30T21:04:18.191Z,101815.98
2018-06-30T21:06:46.540Z,101818.92
2018-06-30T21:09:15.633Z,101817.97
2018-06-30T21:11:43.008Z,101817.86
2018-06-30T21:14:09.939Z,101815.65
2018-06-30T21:16:37.055Z,101815.41
2018-06-30T21:19:04.214Z,101816.96
2018-06-30T21:21:31.420Z,101820.59
2018-06-30T21:23:58.380Z,101827.31
2018-06-30T21:26:25.677Z,101826.34
2018-06-30T21:28:52.792Z,101824.59
2018-06-30T21:31:20.245Z,101824.48
2018-06-30T21:33:47.332Z,101825.53
2018-06-30T21:36:15.589Z,101821.94
2018-06-30T21:38:42.605Z,101834.11
2018-06-30T21:41:09.990Z,101830.47
2018-06-30T21:43:37.406Z,101832.70
2018-06-30T21:46:05.414Z,101837.64
2018-06-30T21:48:32.841Z,101832.70
2018-06-30T21:50:59.778Z,101839.58
2018-06-30T21:53:27.173Z,101838.44
2018-06-30T21:55:54.214Z,101846.91
2018-06-30T21:58:22.596Z,101849.33
2018-06-30T22:00:55.537Z,101845.56
2018-06-30T22:03:24.000Z,101844.10
2018-06-30T22:05:52.853Z,101846.02
2018-06-30T22:08:20.027Z,101848.55
2018-06-30T22:10:47.308Z,101845.58
2018-06-30T22:13:14.494Z,101846.69
2018-06-30T22:15:41.905Z,101848.95
2018-06-30T22:18:09.267Z,101844.73
2018-06-30T22:20:36.577Z,101844.99
2018-06-30T22:23:04.274Z,101849.00
2018-06-30T22:25:31.879Z,101848.91
2018-06-30T22:27:59.123Z,101847.30
2018-06-30T22:30:26.115Z,101850.55
2018-06-30T22:32:53.086Z,101847.89
2018-06-30T22:35:20.003Z,101842.33
2018-06-30T22:37:47.088Z,101842.59
2018-06-30T22:40:16.647Z,101846.15
2018-06-30T22:42:44.161Z,101846.55
2018-06-30T22:45:11.072Z,101854.75
2018-06-30T22:47:37.980Z,101850.58
2018-06-30T22:50:04.928Z,101845.55
2018-06-30T22:52:31.864Z,101848.66
2018-06-30T22:54:58.772Z,101849.31
2018-06-30T22:57:25.688Z,101850.92
2018-06-30T22:59:52.620Z,101850.94
2018-06-30T23:02:19.645Z,101851.53
2018-06-30T23:04:46.576Z,101859.53
2018-06-30T23:07:13.577Z,101859.73
2018-06-30T23:09:40.841Z,101859.61
2018-06-30T23:12:07.933Z,101871.07
2018-06-30T23:14:34.856Z,101877.31
2018-06-30T23:17:01.784Z,101879.89
2018-06-30T23:19:28.717Z,101883.81
2018-06-30T23:21:55.720Z,101885.16
2018-06-30T23:24:22.687Z,101879.52
2018-06-30T23:26:49.612Z,101885.13
2018-06-30T23:29:16.536Z,101888.90
2018-06-30T23:31:43.448Z,101885.13
2018-06-30T23:34:10.399Z,101885.16
2018-06-30T23:36:37.328Z,101894.84
2018-06-30T23:39:07.161Z,101887.92
2018-06-30T23:41:34.070Z,101886.93
2018-06-30T23:44:00.995Z,101881.14
2018-06-30T23:46:27.905Z,101882.88
2018-06-30T23:48:54.801Z,101880.50
2018-06-30T23:51:21.704Z,101881.66
2018-06-30T23:53:48.612Z,101875.44
2018-06-30T23:56:15.535Z,101890.92
2018-06-30T23:58:42.441Z,101880.79
